createdAt,value
2018-04-08T00:01:25.801Z,12.40
2018-04-08T00:03:53.343Z,12.40
2018-04-08T00:06:20.890Z,12.40
2018-04-08T00:08:48.405Z,12.40
2018-04-08T00:11:15.933Z,12.50
2018-04-08T00:13:43.445Z,12.50
2018-04-08T00:16:10.973Z,12.40
2018-04-08T00:18:38.504Z,12.30
2018-04-08T00:21:06.037Z,12.20
2018-04-08T00:23:33.565Z,12.10
2018-04-08T00:26:01.105Z,12.10
2018-04-08T00:28:28.637Z,12.10
2018-04-08T00:30:56.183Z,12.10
2018-04-08T00:33:23.700Z,12.00
2018-04-08T00:35:51.307Z,11.90
2018-04-08T00:38:18.840Z,11.90
2018-04-08T00:40:47.200Z,11.80
2018-04-08T00:43:14.739Z,11.80
2018-04-08T00:45:42.285Z,11.70
2018-04-08T00:48:09.810Z,11.60
2018-04-08T00:50:37.358Z,11.60
2018-04-08T00:53:04.870Z,11.50
2018-04-08T00:55:32.411Z,11.50
2018-04-08T00:57:59.926Z,11.50
2018-04-08T01:00:27.479Z,11.50
2018-04-08T01:02:55.002Z,11.30
2018-04-08T01:05:22.533Z,11.30
2018-04-08T01:07:50.054Z,11.30
2018-04-08T01:10:17.585Z,11.40
2018-04-08T01:12:45.110Z,11.30
2018-04-08T01:15:13.417Z,11.30
2018-04-08T01:17:40.940Z,11.30
2018-04-08T01:20:08.462Z,11.40
2018-04-08T01:22:36.006Z,11.40
2018-04-08T01:25:03.556Z,11.50
2018-04-08T01:27:31.101Z,11.50
2018-04-08T01:29:58.630Z,11.50
2018-04-08T01:32:26.161Z,11.60
2018-04-08T01:34:53.681Z,11.50
2018-04-08T01:37:21.236Z,11.40
2018-04-08T01:39:48.745Z,11.50
2018-04-08T01:42:16.281Z,11.50
2018-04-08T01:44:43.801Z,11.50
2018-04-08T01:47:11.335Z,11.50
2018-04-08T01:49:38.903Z,11.60
2018-04-08T01:52:06.440Z,11.50
2018-04-08T01:54:34.743Z,11.40
2018-04-08T01:57:02.277Z,11.30
2018-04-08T01:59:30.564Z,11.20
2018-04-08T02:01:58.867Z,11.20
2018-04-08T02:04:26.391Z,11.10
2018-04-08T02:06:53.934Z,11.20
2018-04-08T02:09:21.445Z,11.20
2018-04-08T02:11:48.988Z,11.10
2018-04-08T02:14:17.457Z,11.10
2018-04-08T02:16:45.002Z,11.10
2018-04-08T02:19:13.289Z,11.00
2018-04-08T02:21:40.825Z,11.00
2018-04-08T02:24:09.126Z,11.00
2018-04-08T02:26:36.657Z,11.00
2018-04-08T02:29:04.950Z,10.90
2018-04-08T02:31:32.487Z,10.90
2018-04-08T02:34:00.798Z,10.80
2018-04-08T02:36:28.334Z,10.80
2018-04-08T02:38:56.652Z,10.70
2018-04-08T02:41:24.173Z,10.70
2018-04-08T02:43:52.475Z,10.50
2018-04-08T02:46:20.017Z,10.50
2018-04-08T02:48:47.567Z,10.50
2018-04-08T02:51:15.086Z,10.40
2018-04-08T02:53:43.411Z,10.40
2018-04-08T02:56:10.947Z,10.40
2018-04-08T02:58:38.485Z,10.40
2018-04-08T03:01:05.997Z,10.30
2018-04-08T03:03:33.544Z,10.30
2018-04-08T03:06:01.061Z,10.30
2018-04-08T03:08:28.601Z,10.30
2018-04-08T03:10:56.132Z,10.30
2018-04-08T03:13:23.673Z,10.30
2018-04-08T03:15:51.218Z,10.30
2018-04-08T03:18:18.766Z,10.30
2018-04-08T03:20:47.057Z,10.10
2018-04-08T03:23:14.596Z,10.10
2018-04-08T03:25:42.868Z,9.90
2018-04-08T03:28:10.405Z,9.90
2018-04-08T03:30:37.979Z,9.90
2018-04-08T03:33:05.516Z,9.90
2018-04-08T03:35:33.029Z,9.80
2018-04-08T03:38:00.565Z,9.80
2018-04-08T03:40:28.853Z,9.80
2018-04-08T03:42:56.395Z,9.80
2018-04-08T03:45:24.678Z,9.90
2018-04-08T03:47:52.981Z,9.80
2018-04-08T03:50:20.533Z,9.80
2018-04-08T03:52:48.063Z,9.80
2018-04-08T03:55:16.356Z,9.80
2018-04-08T03:57:43.896Z,9.80
2018-04-08T04:00:11.462Z,9.80
2018-04-08T04:02:38.989Z,9.70
2018-04-08T04:05:06.538Z,9.70
2018-04-08T04:07:34.053Z,9.70
2018-04-08T04:10:01.595Z,9.80
2018-04-08T04:12:29.132Z,9.80
2018-04-08T04:14:57.445Z,9.80
2018-04-08T04:17:24.966Z,9.70
2018-04-08T04:20:04.225Z,9.70
2018-04-08T04:22:43.607Z,9.60
2018-04-08T04:25:25.657Z,9.70
2018-04-08T04:27:53.199Z,9.60
2018-04-08T04:30:21.529Z,9.50
2018-04-08T04:32:49.077Z,9.50
2018-04-08T04:35:16.625Z,9.50
2018-04-08T04:37:44.163Z,9.50
2018-04-08T04:40:11.697Z,9.50
2018-04-08T04:42:39.270Z,9.40
2018-04-08T04:45:07.568Z,9.50
2018-04-08T04:47:35.100Z,9.40
2018-04-08T04:50:03.400Z,9.50
2018-04-08T04:52:30.909Z,9.50
2018-04-08T04:54:58.438Z,9.50
2018-04-08T04:57:25.951Z,9.70
2018-04-08T04:59:53.468Z,9.80
2018-04-08T05:02:21.005Z,9.80
2018-04-08T05:04:48.521Z,9.90
2018-04-08T05:07:16.856Z,10.10
2018-04-08T05:09:44.379Z,10.10
2018-04-08T05:12:11.931Z,10.20
2018-04-08T05:14:40.225Z,10.30
2018-04-08T05:17:07.761Z,10.30
2018-04-08T05:19:35.288Z,10.40
2018-04-08T05:22:02.856Z,10.40
2018-04-08T05:24:31.148Z,10.50
2018-04-08T05:26:58.719Z,10.40
2018-04-08T05:29:26.263Z,10.50
2018-04-08T05:31:54.062Z,10.60
2018-04-08T05:34:21.854Z,10.70
2018-04-08T05:36:49.417Z,10.70
2018-04-08T05:39:16.936Z,10.80
2018-04-08T05:41:44.484Z,10.90
2018-04-08T05:44:12.012Z,11.00
2018-04-08T05:46:39.584Z,11.10
2018-04-08T05:49:07.122Z,11.20
2018-04-08T05:51:35.426Z,11.40
2018-04-08T05:54:02.954Z,11.40
2018-04-08T05:56:30.493Z,11.50
2018-04-08T05:58:58.007Z,11.60
2018-04-08T06:01:25.542Z,11.70
2018-04-08T06:03:53.126Z,11.70
2018-04-08T06:06:20.639Z,11.90
2018-04-08T06:08:48.175Z,12.00
2018-04-08T06:11:15.705Z,12.10
2018-04-08T06:13:44.102Z,12.20
2018-04-08T06:16:11.622Z,12.30
2018-04-08T06:18:39.160Z,12.40
2018-04-08T06:21:06.709Z,12.50
2018-04-08T06:23:35.030Z,12.60
2018-04-08T06:26:02.592Z,12.60
2018-04-08T06:28:30.122Z,12.60
2018-04-08T06:30:57.684Z,12.70
2018-04-08T06:33:25.262Z,12.80
2018-04-08T06:35:52.806Z,12.90
2018-04-08T06:38:20.356Z,12.90
2018-04-08T06:40:47.892Z,13.00
2018-04-08T06:43:15.452Z,13.10
2018-04-08T06:45:42.987Z,13.40
2018-04-08T06:48:10.525Z,13.50
2018-04-08T06:50:38.065Z,13.90
2018-04-08T06:53:05.623Z,14.30
2018-04-08T06:55:33.145Z,14.50
2018-04-08T06:58:00.732Z,14.90
2018-04-08T07:00:28.257Z,15.50
2018-04-08T07:02:55.806Z,16.10
2018-04-08T07:05:24.130Z,17.70
2018-04-08T07:07:51.676Z,17.70
2018-04-08T07:10:19.197Z,17.90
2018-04-08T07:12:47.510Z,18.30
2018-04-08T07:15:15.029Z,18.30
2018-04-08T07:17:44.058Z,20.80
2018-04-08T07:20:11.599Z,20.80
2018-04-08T07:22:39.195Z,22.30
2018-04-08T07:25:06.721Z,24.00
2018-04-08T07:27:34.237Z,25.30
2018-04-08T07:30:01.818Z,24.90
2018-04-08T07:32:30.114Z,25.80
2018-04-08T07:34:57.674Z,25.80
2018-04-08T07:37:25.222Z,26.20
2018-04-08T07:39:52.768Z,26.20
2018-04-08T07:42:21.062Z,25.60
2018-04-08T07:44:48.617Z,25.60
2018-04-08T07:47:16.133Z,26.40
2018-04-08T07:49:44.130Z,26.50
2018-04-08T07:52:11.664Z,25.90
2018-04-08T07:54:39.199Z,25.50
2018-04-08T07:57:06.721Z,26.10
2018-04-08T07:59:34.289Z,26.70
2018-04-08T08:02:01.837Z,26.60
2018-04-08T08:04:29.377Z,26.40
2018-04-08T08:06:57.664Z,27.70
2018-04-08T08:09:25.192Z,27.70
2018-04-08T08:11:53.524Z,27.80
2018-04-08T08:14:21.063Z,27.80
2018-04-08T08:16:48.577Z,27.60
2018-04-08T08:19:16.108Z,28.50
2018-04-08T08:21:43.638Z,28.80
2018-04-08T08:24:11.177Z,29.70
2018-04-08T08:26:39.512Z,29.50
2018-04-08T08:29:07.062Z,29.40
2018-04-08T08:31:34.582Z,29.30
2018-04-08T08:34:02.136Z,28.70
2018-04-08T08:36:29.658Z,28.10
2018-04-08T08:38:57.206Z,28.10
2018-04-08T08:41:24.720Z,28.10
2018-04-08T08:43:52.279Z,28.40
2018-04-08T08:46:19.818Z,28.50
2018-04-08T08:48:47.336Z,28.40
2018-04-08T08:51:14.873Z,28.60
2018-04-08T08:53:42.417Z,28.70
2018-04-08T08:56:09.958Z,28.90
2018-04-08T08:58:37.476Z,28.50
2018-04-08T09:01:05.586Z,28.30
2018-04-08T09:03:33.121Z,28.20
2018-04-08T09:06:00.674Z,28.20
2018-04-08T09:08:29.108Z,27.80
2018-04-08T09:10:56.658Z,27.80
2018-04-08T09:13:24.185Z,28.30
2018-04-08T09:15:51.718Z,28.00
2018-04-08T09:18:20.013Z,27.90
2018-04-08T09:20:49.333Z,28.00
2018-04-08T09:23:34.560Z,27.70
2018-04-08T09:26:16.026Z,27.40
2018-04-08T09:28:43.592Z,27.30
2018-04-08T09:31:11.131Z,27.30
2018-04-08T09:33:38.693Z,27.00
2018-04-08T09:36:06.226Z,27.20
2018-04-08T09:38:33.754Z,27.30
2018-04-08T09:41:02.060Z,26.50
2018-04-08T09:43:29.603Z,26.50
2018-04-08T09:45:57.149Z,26.50
2018-04-08T09:48:25.439Z,26.20
2018-04-08T09:50:53.545Z,26.20
2018-04-08T09:53:21.079Z,26.20
2018-04-08T09:55:49.425Z,25.80
2018-04-08T09:58:18.273Z,25.80
2018-04-08T10:03:51.737Z,25.30
2018-04-08T10:06:19.284Z,24.80
2018-04-08T10:08:47.570Z,23.30
2018-04-08T10:11:15.112Z,23.30
2018-04-08T10:13:43.551Z,23.00
2018-04-08T10:16:11.091Z,22.60
2018-04-08T10:18:38.612Z,22.20
2018-04-08T10:21:06.914Z,21.90
2018-04-08T10:23:34.437Z,21.90
2018-04-08T10:26:01.975Z,21.60
2018-04-08T10:28:29.498Z,21.50
2018-04-08T10:30:57.030Z,21.40
2018-04-08T10:33:24.577Z,21.50
2018-04-08T10:35:52.886Z,21.80
2018-04-08T10:38:20.414Z,21.80
2018-04-08T10:40:48.716Z,22.00
2018-04-08T10:43:16.228Z,21.90
2018-04-08T10:45:43.764Z,22.00
2018-04-08T10:48:11.294Z,22.00
2018-04-08T10:50:38.832Z,22.00
2018-04-08T10:53:06.365Z,22.00
2018-04-08T10:55:33.920Z,22.00
2018-04-08T10:58:02.228Z,22.10
2018-04-08T11:00:29.761Z,22.10
2018-04-08T11:02:57.289Z,22.30
2018-04-08T11:05:24.841Z,22.20
2018-04-08T11:07:52.360Z,22.20
2018-04-08T11:10:19.925Z,22.10
2018-04-08T11:12:47.456Z,22.30
2018-04-08T11:15:15.014Z,22.40
2018-04-08T11:17:43.308Z,22.70
2018-04-08T11:20:11.581Z,22.70
2018-04-08T11:22:39.121Z,22.70
2018-04-08T11:25:06.639Z,22.60
2018-04-08T11:27:34.181Z,22.50
2018-04-08T11:30:02.422Z,22.50
2018-04-08T11:32:29.953Z,22.50
2018-04-08T11:34:57.465Z,22.60
2018-04-08T11:37:25.005Z,22.80
2018-04-08T11:39:52.544Z,22.70
2018-04-08T11:42:20.082Z,22.60
2018-04-08T11:44:47.604Z,22.50
2018-04-08T11:47:15.183Z,22.30
2018-04-08T11:49:42.688Z,22.40
2018-04-08T11:52:10.227Z,22.70
2018-04-08T11:54:38.535Z,22.70
2018-04-08T11:57:06.125Z,22.70
2018-04-08T11:59:33.650Z,22.70
2018-04-08T12:02:01.216Z,22.60
2018-04-08T12:04:28.729Z,22.60
2018-04-08T12:06:57.046Z,22.70
2018-04-08T12:09:24.567Z,22.70
2018-04-08T12:11:52.874Z,23.00
2018-04-08T12:14:20.493Z,23.00
2018-04-08T12:16:48.047Z,23.10
2018-04-08T12:19:15.573Z,23.10
2018-04-08T12:21:43.132Z,23.10
2018-04-08T12:24:10.644Z,23.20
2018-04-08T12:26:38.757Z,23.10
2018-04-08T12:29:06.321Z,23.20
2018-04-08T12:31:33.861Z,23.20
2018-04-08T12:34:01.382Z,23.20
2018-04-08T12:36:28.940Z,23.10
2018-04-08T12:38:56.481Z,23.00
2018-04-08T12:41:24.010Z,22.90
2018-04-08T12:43:51.807Z,23.00
2018-04-08T12:46:19.329Z,23.10
2018-04-08T12:48:46.889Z,23.00
2018-04-08T12:51:14.404Z,23.00
2018-04-08T12:53:41.947Z,22.80
2018-04-08T12:56:09.484Z,22.70
2018-04-08T12:58:37.021Z,22.60
2018-04-08T13:01:04.542Z,22.50
2018-04-08T13:03:32.096Z,22.30
2018-04-08T13:05:59.612Z,22.20
2018-04-08T13:08:27.171Z,22.10
2018-04-08T13:10:54.706Z,22.10
2018-04-08T13:13:22.250Z,22.10
2018-04-08T13:15:49.770Z,22.10
2018-04-08T13:18:17.336Z,22.10
2018-04-08T13:20:45.908Z,22.20
2018-04-08T13:23:13.477Z,22.20
2018-04-08T13:25:41.036Z,22.20
2018-04-08T13:28:08.586Z,22.00
2018-04-08T13:30:36.109Z,21.90
2018-04-08T13:33:03.664Z,21.90
2018-04-08T13:35:31.207Z,21.90
2018-04-08T13:37:58.842Z,21.90
2018-04-08T13:40:27.381Z,21.90
2018-04-08T13:42:54.908Z,21.80
2018-04-08T13:45:22.424Z,21.70
2018-04-08T13:47:49.984Z,21.60
2018-04-08T13:50:17.522Z,21.40
2018-04-08T13:52:45.834Z,21.40
2018-04-08T13:55:13.369Z,21.40
2018-04-08T13:57:40.909Z,21.40
2018-04-08T14:00:09.201Z,21.30
2018-04-08T14:02:36.712Z,21.20
2018-04-08T14:05:04.243Z,21.30
2018-04-08T14:07:31.769Z,21.30
2018-04-08T14:09:59.328Z,21.30
2018-04-08T14:12:26.878Z,21.30
2018-04-08T14:14:55.197Z,21.30
2018-04-08T14:17:22.720Z,21.20
2018-04-08T14:19:51.059Z,21.20
2018-04-08T14:22:18.595Z,21.20
2018-04-08T14:24:46.133Z,21.20
2018-04-08T14:27:13.671Z,21.20
2018-04-08T14:29:41.219Z,21.20
2018-04-08T14:32:09.824Z,21.00
2018-04-08T14:34:37.372Z,20.90
2018-04-08T14:37:05.680Z,20.90
2018-04-08T14:39:33.240Z,20.90
2018-04-08T14:42:00.840Z,20.90
2018-04-08T14:44:28.393Z,20.90
2018-04-08T14:46:55.933Z,21.00
2018-04-08T14:49:23.519Z,20.90
2018-04-08T14:51:51.048Z,20.90
2018-04-08T14:54:18.600Z,20.80
2018-04-08T14:56:46.584Z,20.90
2018-04-08T14:59:14.144Z,20.90
2018-04-08T15:01:46.663Z,20.90
2018-04-08T15:04:09.250Z,20.90
2018-04-08T15:06:36.789Z,20.90
2018-04-08T15:09:04.338Z,20.90
2018-04-08T15:11:31.875Z,20.90
2018-04-08T15:13:59.414Z,20.90
2018-04-08T15:16:26.937Z,20.90
2018-04-08T15:18:54.493Z,20.80
2018-04-08T15:21:22.029Z,20.80
2018-04-08T15:23:49.560Z,20.70
2018-04-08T15:26:17.869Z,20.50
2018-04-08T15:28:45.404Z,20.50
2018-04-08T15:31:12.960Z,20.40
2018-04-08T15:33:40.483Z,20.40
2018-04-08T15:36:08.034Z,20.40
2018-04-08T15:38:35.548Z,20.30
2018-04-08T15:41:03.087Z,20.30
2018-04-08T15:43:31.386Z,20.20
2018-04-08T15:45:59.000Z,20.20
2018-04-08T15:48:26.528Z,20.20
2018-04-08T15:50:54.072Z,20.20
2018-04-08T15:53:21.600Z,20.20
2018-04-08T15:55:49.154Z,20.10
2018-04-08T15:58:17.460Z,20.10
2018-04-08T16:00:45.018Z,20.10
2018-04-08T16:03:12.548Z,20.10
2018-04-08T16:05:40.885Z,19.90
2018-04-08T16:08:08.410Z,19.90
2018-04-08T16:10:35.957Z,19.90
2018-04-08T16:13:03.489Z,19.80
2018-04-08T16:15:31.661Z,19.70
2018-04-08T16:17:59.949Z,19.60
2018-04-08T16:20:27.484Z,19.50
2018-04-08T16:22:55.032Z,19.60
2018-04-08T16:25:22.568Z,19.50
2018-04-08T16:27:50.178Z,19.40
2018-04-08T16:30:17.686Z,19.30
2018-04-08T16:32:45.229Z,19.30
2018-04-08T16:35:12.865Z,19.10
2018-04-08T16:37:40.389Z,19.10
2018-04-08T16:40:07.905Z,19.10
2018-04-08T16:42:35.461Z,19.00
2018-04-08T16:45:03.752Z,18.90
2018-04-08T16:47:31.302Z,18.90
2018-04-08T16:49:58.834Z,18.80
2018-04-08T16:52:26.461Z,18.70
2018-04-08T16:54:54.857Z,18.50
2018-04-08T16:57:22.542Z,18.50
2018-04-08T16:59:50.078Z,18.40
2018-04-08T17:02:17.660Z,18.40
2018-04-08T17:04:45.216Z,18.30
2018-04-08T17:07:12.838Z,18.20
2018-04-08T17:09:41.147Z,17.90
2018-04-08T17:12:08.689Z,17.90
2018-04-08T17:14:36.977Z,17.60
2018-04-08T17:17:04.511Z,17.60
2018-04-08T17:19:32.804Z,17.40
2018-04-08T17:22:00.362Z,17.40
2018-04-08T17:24:27.907Z,17.30
2018-04-08T17:26:55.499Z,17.20
2018-04-08T17:29:23.089Z,17.00
2018-04-08T17:31:50.749Z,16.90
2018-04-08T17:34:18.285Z,16.70
2018-04-08T17:36:45.842Z,16.60
2018-04-08T17:39:13.373Z,16.40
2018-04-08T17:41:40.909Z,16.20
2018-04-08T17:44:09.210Z,15.80
2018-04-08T17:46:36.761Z,15.80
2018-04-08T17:49:04.295Z,15.80
2018-04-08T17:51:31.829Z,15.70
2018-04-08T17:53:59.383Z,15.60
2018-04-08T17:56:26.912Z,15.50
2018-04-08T17:58:54.460Z,15.40
2018-04-08T18:01:22.008Z,15.20
2018-04-08T18:03:49.541Z,15.00
2018-04-08T18:06:17.071Z,14.90
2018-04-08T18:08:44.699Z,14.80
2018-04-08T18:11:12.234Z,14.60
2018-04-08T18:13:40.581Z,14.50
2018-04-08T18:16:08.111Z,14.50
2018-04-08T18:18:35.642Z,14.30
2018-04-08T18:21:03.161Z,14.30
2018-04-08T18:23:30.709Z,14.10
2018-04-08T18:25:58.245Z,13.90
2018-04-08T18:28:25.810Z,14.00
2018-04-08T18:30:53.352Z,14.00
2018-04-08T18:33:20.905Z,13.80
2018-04-08T18:35:48.450Z,13.70
2018-04-08T18:38:16.007Z,13.50
2018-04-08T18:40:43.547Z,13.50
2018-04-08T18:43:11.102Z,13.40
2018-04-08T18:45:38.624Z,13.30
2018-04-08T18:48:06.935Z,13.20
2018-04-08T18:50:34.479Z,13.10
2018-04-08T18:53:02.012Z,13.10
2018-04-08T18:55:29.568Z,13.10
2018-04-08T18:57:57.146Z,13.30
2018-04-08T19:00:24.695Z,13.20
2018-04-08T19:02:52.274Z,13.10
2018-04-08T19:05:19.805Z,12.80
2018-04-08T19:07:47.347Z,12.50
2018-04-08T19:10:14.894Z,12.20
2018-04-08T19:12:42.419Z,12.00
2018-04-08T19:15:15.674Z,11.80
2018-04-08T19:17:48.967Z,11.80
2018-04-08T19:20:16.507Z,11.70
2018-04-08T19:22:44.052Z,11.60
2018-04-08T19:25:11.606Z,11.60
2018-04-08T19:27:39.134Z,11.50
2018-04-08T19:30:13.211Z,11.30
2018-04-08T19:32:40.741Z,11.30
2018-04-08T19:35:08.277Z,11.20
2018-04-08T19:37:35.806Z,11.10
2018-04-08T19:40:03.353Z,11.00
2018-04-08T19:42:30.873Z,11.10
2018-04-08T19:44:58.425Z,11.10
2018-04-08T19:47:25.957Z,11.30
2018-04-08T19:49:53.492Z,11.40
2018-04-08T19:52:21.009Z,11.30
2018-04-08T19:54:48.564Z,11.10
2018-04-08T19:57:16.102Z,10.90
2018-04-08T19:59:43.640Z,10.70
2018-04-08T20:02:11.925Z,10.60
2018-04-08T20:04:39.465Z,10.60
2018-04-08T20:07:07.754Z,10.40
2018-04-08T20:09:35.300Z,10.30
2018-04-08T20:12:03.589Z,10.20
2018-04-08T20:14:31.125Z,10.20
2018-04-08T20:16:59.413Z,10.00
2018-04-08T20:19:26.965Z,10.00
2018-04-08T20:21:55.249Z,9.90
2018-04-08T20:24:22.805Z,9.90
2018-04-08T20:26:51.097Z,9.80
2018-04-08T20:29:18.639Z,9.80
2018-04-08T20:31:46.182Z,9.70
2018-04-08T20:34:14.477Z,9.50
2018-04-08T20:36:42.037Z,9.40
2018-04-08T20:39:10.019Z,9.40
2018-04-08T20:41:37.557Z,9.40
2018-04-08T20:44:05.086Z,9.30
2018-04-08T20:46:32.658Z,9.30
2018-04-08T20:49:00.993Z,9.30
2018-04-08T20:51:28.517Z,9.30
2018-04-08T20:53:56.037Z,9.30
2018-04-08T20:56:23.566Z,9.30
2018-04-08T20:58:51.085Z,9.30
2018-04-08T21:01:18.617Z,9.20
2018-04-08T21:03:46.183Z,9.10
2018-04-08T21:06:13.694Z,9.00
2018-04-08T21:08:41.219Z,9.00
2018-04-08T21:11:08.757Z,9.10
2018-04-08T21:13:37.045Z,9.10
2018-04-08T21:16:04.586Z,9.10
2018-04-08T21:18:32.877Z,8.90
2018-04-08T21:21:01.203Z,8.90
2018-04-08T21:23:29.642Z,8.90
2018-04-08T21:25:57.180Z,9.10
2018-04-08T21:28:25.472Z,8.80
2018-04-08T21:30:53.014Z,8.70
2018-04-08T21:33:21.300Z,8.70
2018-04-08T21:35:48.859Z,8.70
2018-04-08T21:38:16.383Z,8.70
2018-04-08T21:40:43.900Z,8.80
2018-04-08T21:43:11.432Z,8.60
2018-04-08T21:45:38.958Z,8.50
2018-04-08T21:48:06.494Z,8.30
2018-04-08T21:50:34.010Z,8.20
2018-04-08T21:53:01.546Z,8.00
2018-04-08T21:55:29.060Z,8.00
2018-04-08T21:57:56.599Z,7.90
2018-04-08T22:00:24.109Z,7.90
2018-04-08T22:02:51.651Z,7.90
2018-04-08T22:05:19.176Z,7.70
2018-04-08T22:07:46.717Z,7.70
2018-04-08T22:10:14.271Z,7.70
2018-04-08T22:12:41.814Z,7.70
2018-04-08T22:15:09.329Z,7.70
2018-04-08T22:17:36.867Z,7.60
2018-04-08T22:20:04.395Z,7.60
2018-04-08T22:22:31.927Z,7.70
2018-04-08T22:24:59.447Z,7.60
2018-04-08T22:27:26.981Z,7.60
2018-04-08T22:29:54.495Z,7.60
2018-04-08T22:32:22.037Z,7.60
2018-04-08T22:34:49.579Z,7.50
2018-04-08T22:37:17.137Z,7.50
2018-04-08T22:39:44.659Z,7.40
2018-04-08T22:42:12.188Z,7.30
2018-04-08T22:44:40.470Z,7.20
2018-04-08T22:47:08.001Z,7.20
2018-04-08T22:49:35.516Z,7.20
2018-04-08T22:52:03.808Z,7.10
2018-04-08T22:54:31.340Z,7.00
2018-04-08T22:56:58.862Z,7.00
2018-04-08T22:59:26.396Z,6.90
2018-04-08T23:01:53.926Z,6.90
2018-04-08T23:04:21.484Z,6.80
2018-04-08T23:06:49.782Z,6.70
2018-04-08T23:09:17.327Z,6.70
2018-04-08T23:11:44.896Z,6.70
2018-04-08T23:14:12.432Z,6.80
2018-04-08T23:16:39.976Z,6.70
2018-04-08T23:19:07.524Z,6.70
2018-04-08T23:21:35.059Z,6.70
2018-04-08T23:24:02.626Z,6.70
2018-04-08T23:26:30.144Z,6.60
2018-04-08T23:28:57.694Z,6.70
2018-04-08T23:31:25.227Z,6.80
2018-04-08T23:33:52.757Z,6.80
2018-04-08T23:36:20.291Z,6.80
2018-04-08T23:38:47.831Z,6.80
2018-04-08T23:41:15.345Z,6.80
2018-04-08T23:43:42.888Z,6.70
2018-04-08T23:46:11.181Z,7.10
2018-04-08T23:48:38.726Z,7.10
2018-04-08T23:51:07.016Z,7.10
2018-04-08T23:53:34.567Z,7.00
2018-04-08T23:56:02.125Z,6.90
2018-04-08T23:58:29.667Z,6.80
